KCXYKABE

Guest
Details From KCXY - Capital City
To KABE - Lehigh Valley Intl
Flight Number -
Tags Generated
Created
Modified
Stats Distance 70 nm / 129 km
Max Altitude 0 ft / 0 m
Waypoints 2
Social Downloads 0
Likes 0
Share VATSIM

Download

Looking for another format? Having issues loading an existing format? Contact us
Advertisement - Login to hide

Notes

Generated

Route

KCXY KABE

ID Type Via Altitude Latitude Longitude Leg Dist Tot Dist Heading (true) Name
O KCXY APT - 0 ft / 0 m 40.21871˚ -76.85954˚ - 0 nm - -
O KABE APT - 0 ft / 0 m 40.65519˚ -75.44976˚ 69 nm 69 nm 67° / 68° -

Altitude Profile

Advertisement - Login to hide

KCXY

Details ICAO KCXY (CXY)
Name CAPITAL CITY
Region United States
Timezone America/New_York (UTC-5.0)
Stats Elevation 347 ft / 106 m (AMSL)
Location 40.217052° -76.851658°
Runways 2
Magnetic Variation 11.228° W

METAR

KCXY 120756Z AUTO 09006KT 10SM SCT080 OVC110 03/M02 A2970 RMK AO2 SLP062 T00281022

Decode

TAF

Not found

Departure Runways

ID Width Length Bearing (true) Bearing (mag) Surface Threshold Offset Overrun Length
08 150 ft / 46 m 4,992 ft / 1,521 m 71.15° 82.38° Asphalt 0 ft / 0 m 0 ft / 0 m
12 100 ft / 30 m 3,918 ft / 1,194 m 116.58° 127.81° Asphalt 0 ft / 0 m 0 ft / 0 m
26 150 ft / 46 m 4,992 ft / 1,521 m 251.16° 262.39° Asphalt 0 ft / 0 m 0 ft / 0 m
30 100 ft / 30 m 3,918 ft / 1,194 m 296.59° 307.82° Asphalt 0 ft / 0 m 0 ft / 0 m

KABE

Details ICAO KABE (ABE)
Name Lehigh Valley Intl
Region United States
Timezone America/New_York (UTC-5.0)
Stats Elevation 394 ft / 120 m (AMSL)
Location 40.652185° -75.440472°
Runways 2
Magnetic Variation 12.129° W

METAR

KABE 120751Z 13005KT 10SM OVC075 03/M04 A2978 RMK AO2 SLP087 T00281039

Decode

TAF

TAF KABE 120522Z 1206/1306 12005KT P6SM OVC070 WS020/18030KT FM121200 16005KT P6SM VCSH OVC040 FM121600 24009KT P6SM VCSH OVC040 FM122000 28013G22KT P6SM BKN040

Decode

Destination Runways

ID Width Length Bearing (true) Bearing (mag) Surface Threshold Offset Overrun Length
06 150 ft / 46 m 7,595 ft / 2,315 m 51.15° 63.28° Asphalt 0 ft / 0 m 0 ft / 0 m
13 150 ft / 46 m 5,790 ft / 1,765 m 123.09° 135.22° Asphalt 0 ft / 0 m 0 ft / 0 m
24 150 ft / 46 m 7,595 ft / 2,315 m 231.17° 243.30° Asphalt 500 ft / 152 m 0 ft / 0 m
31 150 ft / 46 m 5,790 ft / 1,765 m 303.10° 315.23° Asphalt 0 ft / 0 m 0 ft / 0 m

Approach Navaids

Runway Type Ident Frequency Range Bearing (true) Bearing (mag) Slope Elevation
06 Localiser IABE 110.70 MHz 18 nm / 33 km 51.17° 63.30° - 394 ft / 120 m (AMSL)
06 Glidescope IABE 110.70 MHz 10 nm / 19 km 51.16° 63.29° 3.00° 387 ft / 118 m (AMSL)
13 Localiser IBXY 111.90 MHz 18 nm / 33 km 123.10° 135.23° - 394 ft / 120 m (AMSL)
13 Glidescope IBXY 111.90 MHz 10 nm / 19 km 123.10° 135.23° 3.00° 386 ft / 118 m (AMSL)
24 Localiser IGUW 108.55 MHz 18 nm / 33 km 231.15° 243.28° - 398 ft / 121 m (AMSL)
24 Glidescope IGUW 108.55 MHz 10 nm / 19 km 231.16° 243.29° 3.00° 380 ft / 116 m (AMSL)
24 DME IGUW 108.55 MHz 18 nm / 33 km - - - 405 ft / 123 m (AMSL)